createdAt,value
2023-04-24T00:02:04.601Z,9.60
2023-04-24T00:04:33.044Z,9.60
2023-04-24T00:07:01.269Z,9.60
2023-04-24T00:09:28.477Z,9.60
2023-04-24T00:11:55.557Z,9.60
2023-04-24T00:14:22.790Z,9.60
2023-04-24T00:16:50.246Z,9.60
2023-04-24T00:19:17.650Z,9.50
2023-04-24T00:21:44.845Z,9.50
2023-04-24T00:24:12.104Z,9.50
2023-04-24T00:26:39.215Z,9.50
2023-04-24T00:29:06.260Z,9.50
2023-04-24T00:31:35.967Z,9.50
2023-04-24T00:34:04.116Z,9.50
2023-04-24T00:36:32.008Z,9.50
2023-04-24T00:38:59.336Z,9.50
2023-04-24T00:41:26.845Z,9.50
2023-04-24T00:43:54.279Z,9.50
2023-04-24T00:46:22.140Z,9.50
2023-04-24T00:48:49.233Z,9.50
2023-04-24T00:51:16.994Z,9.50
2023-04-24T00:53:44.051Z,9.50
2023-04-24T00:56:11.221Z,9.50
2023-04-24T00:58:38.563Z,9.50
2023-04-24T01:01:08.379Z,9.50
2023-04-24T01:03:38.505Z,9.50
2023-04-24T01:06:06.939Z,9.50
2023-04-24T01:08:35.932Z,9.50
2023-04-24T01:11:05.610Z,9.60
2023-04-24T01:13:33.905Z,9.60
2023-04-24T01:16:02.137Z,9.50
2023-04-24T01:18:29.850Z,9.60
2023-04-24T01:21:00.984Z,9.60
2023-04-24T01:23:28.169Z,9.60
2023-04-24T01:25:55.740Z,9.50
2023-04-24T01:28:23.842Z,9.60
2023-04-24T01:30:51.220Z,9.60
2023-04-24T01:33:18.543Z,9.50
2023-04-24T01:35:45.893Z,9.60
2023-04-24T01:38:13.002Z,9.50
2023-04-24T01:40:40.442Z,9.50
2023-04-24T01:43:07.981Z,9.40
2023-04-24T01:45:35.101Z,9.40
2023-04-24T01:48:02.622Z,9.30
2023-04-24T01:50:32.208Z,9.20
2023-04-24T01:53:01.764Z,9.10
2023-04-24T01:55:29.124Z,9.10
2023-04-24T01:57:57.661Z,9.00
2023-04-24T02:00:25.986Z,9.00
2023-04-24T02:02:53.407Z,8.90
2023-04-24T02:05:20.956Z,8.90
2023-04-24T02:07:48.049Z,8.90
2023-04-24T02:10:15.057Z,8.90
2023-04-24T02:12:42.200Z,9.00
2023-04-24T02:15:09.565Z,9.00
2023-04-24T02:17:37.490Z,9.00
2023-04-24T02:20:05.837Z,9.00
2023-04-24T02:22:32.937Z,9.00
2023-04-24T02:24:59.973Z,8.90
2023-04-24T02:27:27.036Z,8.90
2023-04-24T02:29:54.097Z,8.80
2023-04-24T02:32:21.178Z,8.80
2023-04-24T02:34:48.280Z,8.80
2023-04-24T02:37:15.538Z,8.70
2023-04-24T02:39:42.869Z,8.70
2023-04-24T02:42:10.099Z,8.70
2023-04-24T02:44:37.157Z,8.60
2023-04-24T02:47:04.844Z,8.50
2023-04-24T02:49:31.890Z,8.50
2023-04-24T02:51:58.905Z,8.40
2023-04-24T02:54:26.136Z,8.30
2023-04-24T02:56:53.227Z,8.30
2023-04-24T02:59:20.405Z,8.30
2023-04-24T03:01:47.445Z,8.30
2023-04-24T03:04:14.710Z,8.30
2023-04-24T03:06:42.144Z,8.20
2023-04-24T03:09:09.245Z,8.20
2023-04-24T03:11:36.304Z,8.20
2023-04-24T03:14:03.590Z,8.10
2023-04-24T03:16:30.782Z,8.10
2023-04-24T03:18:57.872Z,8.10
2023-04-24T03:21:24.940Z,8.00
2023-04-24T03:23:51.987Z,8.00
2023-04-24T03:26:19.185Z,8.00
2023-04-24T03:28:46.208Z,8.00
2023-04-24T03:31:13.336Z,8.00
2023-04-24T03:33:40.405Z,7.90
2023-04-24T03:36:07.820Z,7.90
2023-04-24T03:38:34.890Z,7.90
2023-04-24T03:41:02.025Z,7.80
2023-04-24T03:43:29.025Z,7.80
2023-04-24T03:45:56.093Z,7.80
2023-04-24T03:48:23.129Z,7.70
2023-04-24T03:50:50.186Z,7.70
2023-04-24T03:53:17.262Z,7.70
2023-04-24T03:55:44.471Z,7.60
2023-04-24T03:58:12.298Z,7.60
2023-04-24T04:00:41.433Z,7.60
2023-04-24T04:03:08.752Z,7.50
2023-04-24T04:05:35.950Z,7.50
2023-04-24T04:08:03.218Z,7.40
2023-04-24T04:10:30.276Z,7.40
2023-04-24T04:12:57.320Z,7.40
2023-04-24T04:15:24.914Z,7.30
2023-04-24T04:17:52.081Z,7.30
2023-04-24T04:20:19.208Z,7.30
2023-04-24T04:22:46.258Z,7.30
2023-04-24T04:25:14.711Z,7.30
2023-04-24T04:27:42.748Z,7.30
2023-04-24T04:30:10.937Z,7.30
2023-04-24T04:32:38.475Z,7.30
2023-04-24T04:35:05.839Z,7.30
2023-04-24T04:37:34.508Z,7.30
2023-04-24T04:40:02.346Z,7.30
2023-04-24T04:42:29.571Z,7.30
2023-04-24T04:44:58.598Z,7.30
2023-04-24T04:47:25.945Z,7.30
2023-04-24T04:49:53.107Z,7.30
2023-04-24T04:52:20.601Z,7.30
2023-04-24T04:54:47.658Z,7.40
2023-04-24T04:57:14.736Z,7.40
2023-04-24T04:59:42.753Z,7.40
2023-04-24T05:02:10.770Z,7.40
2023-04-24T05:04:38.109Z,7.40
2023-04-24T05:07:05.749Z,7.40
2023-04-24T05:09:32.827Z,7.50
2023-04-24T05:12:00.116Z,7.40
2023-04-24T05:14:27.229Z,7.40
2023-04-24T05:16:54.433Z,7.40
2023-04-24T05:19:21.519Z,7.40
2023-04-24T05:21:48.585Z,7.40
2023-04-24T05:24:15.970Z,7.40
2023-04-24T05:26:43.018Z,7.40
2023-04-24T05:29:10.056Z,7.40
2023-04-24T05:31:37.109Z,7.40
2023-04-24T05:34:04.184Z,7.40
2023-04-24T05:36:32.004Z,7.40
2023-04-24T05:38:59.028Z,7.40
2023-04-24T05:41:26.174Z,7.40
2023-04-24T05:43:53.256Z,7.40
2023-04-24T05:46:20.459Z,7.50
2023-04-24T05:48:47.629Z,7.50
2023-04-24T05:51:14.624Z,7.50
2023-04-24T05:53:41.943Z,7.50
2023-04-24T05:56:09.052Z,7.50
2023-04-24T05:58:36.193Z,7.50
2023-04-24T06:01:03.685Z,7.50
2023-04-24T06:03:34.021Z,7.50
2023-04-24T06:06:01.320Z,7.40
2023-04-24T06:08:28.348Z,7.40
2023-04-24T06:10:55.386Z,7.40
2023-04-24T06:13:22.455Z,7.40
2023-04-24T06:15:49.500Z,7.40
2023-04-24T06:18:16.922Z,7.40
2023-04-24T06:20:44.284Z,7.40
2023-04-24T06:23:11.290Z,7.40
2023-04-24T06:25:39.090Z,7.40
2023-04-24T06:28:06.301Z,7.30
2023-04-24T06:30:33.374Z,7.30
2023-04-24T06:33:06.197Z,7.30
2023-04-24T06:35:46.223Z,7.40
2023-04-24T06:38:13.456Z,7.30
2023-04-24T06:40:40.497Z,7.40
2023-04-24T06:43:07.673Z,7.40
2023-04-24T06:45:34.922Z,7.40
2023-04-24T06:48:02.071Z,7.40
2023-04-24T06:50:29.420Z,7.40
2023-04-24T06:52:56.627Z,7.30
2023-04-24T06:55:23.788Z,7.30
2023-04-24T06:57:51.012Z,7.20
2023-04-24T07:00:18.270Z,7.10
2023-04-24T07:02:45.559Z,7.10
2023-04-24T07:05:13.835Z,7.10
2023-04-24T07:07:41.396Z,7.10
2023-04-24T07:10:09.707Z,7.00
2023-04-24T07:12:36.992Z,7.00
2023-04-24T07:15:04.408Z,7.00
2023-04-24T07:17:31.580Z,7.00
2023-04-24T07:19:58.787Z,7.00
2023-04-24T07:22:26.034Z,7.00
2023-04-24T07:24:53.020Z,7.00
2023-04-24T07:27:20.094Z,7.00
2023-04-24T07:29:47.346Z,7.00
2023-04-24T07:32:14.563Z,7.00
2023-04-24T07:34:41.702Z,6.90
2023-04-24T07:37:08.781Z,7.00
2023-04-24T07:39:35.918Z,7.00
2023-04-24T07:42:02.948Z,6.90
2023-04-24T07:44:30.238Z,6.90
2023-04-24T07:46:57.880Z,6.90
2023-04-24T07:49:25.195Z,6.90
2023-04-24T07:51:52.231Z,6.90
2023-04-24T07:54:19.324Z,6.90
2023-04-24T07:56:46.403Z,6.90
2023-04-24T07:59:13.643Z,6.90
2023-04-24T08:01:40.755Z,6.80
2023-04-24T08:04:07.985Z,6.90
2023-04-24T08:06:35.849Z,6.80
2023-04-24T08:09:03.002Z,6.80
2023-04-24T08:11:31.262Z,6.70
2023-04-24T08:13:58.344Z,6.60
2023-04-24T08:16:25.506Z,6.50
2023-04-24T08:18:53.029Z,6.50
2023-04-24T08:21:20.969Z,6.40
2023-04-24T08:23:48.255Z,6.40
2023-04-24T08:26:15.652Z,6.30
2023-04-24T08:28:43.472Z,6.20
2023-04-24T08:31:10.582Z,6.20
2023-04-24T08:33:37.626Z,6.10
2023-04-24T08:36:06.390Z,6.10
2023-04-24T08:38:33.816Z,6.10
2023-04-24T08:41:02.192Z,6.10
2023-04-24T08:43:29.378Z,6.10
2023-04-24T08:45:58.247Z,6.00
2023-04-24T08:48:30.790Z,6.00
2023-04-24T08:51:00.268Z,5.80
2023-04-24T08:53:28.187Z,5.80
2023-04-24T08:55:57.074Z,5.70
2023-04-24T08:58:27.705Z,5.60
2023-04-24T09:00:59.069Z,5.50
2023-04-24T09:03:28.346Z,5.50
2023-04-24T09:05:57.098Z,5.50
2023-04-24T09:08:27.375Z,5.50
2023-04-24T09:10:54.572Z,5.60
2023-04-24T09:13:22.206Z,5.50
2023-04-24T09:15:49.326Z,5.60
2023-04-24T09:18:16.480Z,5.60
2023-04-24T09:21:04.127Z,5.60
2023-04-24T09:23:32.693Z,5.60
2023-04-24T09:26:02.244Z,5.60
2023-04-24T09:28:40.383Z,5.70
2023-04-24T09:31:11.631Z,5.70
2023-04-24T09:33:38.822Z,5.70
2023-04-24T09:36:07.301Z,5.70
2023-04-24T09:38:38.457Z,5.70
2023-04-24T09:41:14.356Z,5.80
2023-04-24T09:43:41.440Z,5.80
2023-04-24T09:46:10.921Z,5.90
2023-04-24T09:48:39.104Z,5.90
2023-04-24T09:51:12.447Z,5.90
2023-04-24T09:53:42.965Z,6.00
2023-04-24T09:56:11.531Z,6.00
2023-04-24T09:58:38.721Z,6.00
2023-04-24T10:01:06.330Z,6.10
2023-04-24T10:03:34.889Z,6.10
2023-04-24T10:06:03.182Z,6.10
2023-04-24T10:08:37.995Z,6.20
2023-04-24T10:11:05.376Z,6.20
2023-04-24T10:13:34.001Z,6.30
2023-04-24T10:16:02.294Z,6.30
2023-04-24T10:18:31.007Z,6.30
2023-04-24T10:20:58.697Z,6.40
2023-04-24T10:23:27.074Z,6.50
2023-04-24T10:25:54.949Z,6.60
2023-04-24T10:28:22.862Z,6.70
2023-04-24T10:30:51.103Z,6.80
2023-04-24T10:33:19.082Z,6.90
2023-04-24T10:35:50.266Z,6.90
2023-04-24T10:38:36.758Z,7.00
2023-04-24T10:41:20.595Z,7.10
2023-04-24T10:43:49.788Z,7.10
2023-04-24T10:46:23.055Z,7.20
2023-04-24T10:48:56.690Z,7.30
2023-04-24T10:51:25.075Z,7.30
2023-04-24T10:53:52.718Z,7.60
2023-04-24T10:56:19.879Z,7.80
2023-04-24T10:58:53.447Z,7.80
2023-04-24T11:01:28.224Z,7.80
2023-04-24T11:04:05.779Z,7.70
2023-04-24T11:06:38.155Z,7.70
2023-04-24T11:09:14.301Z,7.50
2023-04-24T11:11:46.793Z,7.40
2023-04-24T11:14:17.408Z,7.50
2023-04-24T11:16:46.720Z,7.50
2023-04-24T11:19:17.551Z,7.60
2023-04-24T11:21:52.985Z,7.60
2023-04-24T11:24:33.440Z,7.50
2023-04-24T11:27:21.013Z,7.40
2023-04-24T11:29:57.402Z,7.40
2023-04-24T11:32:34.245Z,7.40
2023-04-24T11:35:23.342Z,7.40
2023-04-24T11:38:13.015Z,7.40
2023-04-24T11:40:39.964Z,7.20
2023-04-24T11:43:08.262Z,7.10
2023-04-24T11:45:36.070Z,7.00
2023-04-24T11:48:05.012Z,7.00
2023-04-24T11:50:32.206Z,6.90
2023-04-24T11:53:01.488Z,6.90
2023-04-24T11:55:30.870Z,6.90
2023-04-24T11:57:59.959Z,6.90
2023-04-24T12:00:32.905Z,6.90
2023-04-24T12:03:11.517Z,6.90
2023-04-24T12:05:40.135Z,7.00
2023-04-24T12:08:07.875Z,7.00
2023-04-24T12:10:36.154Z,7.00
2023-04-24T12:13:03.637Z,7.30
2023-04-24T12:15:30.933Z,7.70
2023-04-24T12:17:58.600Z,8.20
2023-04-24T12:20:28.484Z,8.30
2023-04-24T12:23:00.361Z,8.30
2023-04-24T12:25:29.566Z,8.20
2023-04-24T12:28:14.134Z,8.20
2023-04-24T12:30:49.646Z,8.30
2023-04-24T12:33:23.288Z,8.30
2023-04-24T12:35:55.651Z,8.40
2023-04-24T12:38:28.263Z,8.40
2023-04-24T12:41:06.866Z,8.50
2023-04-24T12:43:34.217Z,8.50
2023-04-24T12:46:01.420Z,8.50
2023-04-24T12:48:29.654Z,8.60
2023-04-24T12:51:01.793Z,8.60
2023-04-24T12:53:30.923Z,8.60
2023-04-24T12:55:58.423Z,8.50
2023-04-24T12:58:25.766Z,8.50
2023-04-24T13:00:52.913Z,8.50
2023-04-24T13:03:20.426Z,8.40
2023-04-24T13:05:47.700Z,8.60
2023-04-24T13:08:14.791Z,8.70
2023-04-24T13:10:42.258Z,8.80
2023-04-24T13:13:10.067Z,8.90
2023-04-24T13:15:37.114Z,8.90
2023-04-24T13:18:04.561Z,8.90
2023-04-24T13:20:31.699Z,8.70
2023-04-24T13:22:58.754Z,8.60
2023-04-24T13:25:26.183Z,8.70
2023-04-24T13:27:53.271Z,9.00
2023-04-24T13:30:20.462Z,9.30
2023-04-24T13:32:47.586Z,9.40
2023-04-24T13:35:15.046Z,9.40
2023-04-24T13:37:42.025Z,9.20
2023-04-24T13:40:09.757Z,9.10
2023-04-24T13:42:36.861Z,9.20
2023-04-24T13:45:21.199Z,9.20
2023-04-24T13:47:52.159Z,9.20
2023-04-24T13:50:19.761Z,9.10
2023-04-24T13:52:47.066Z,9.20
2023-04-24T13:55:14.099Z,9.30
2023-04-24T13:57:41.430Z,9.80
2023-04-24T14:00:11.735Z,10.10
2023-04-24T14:02:39.186Z,10.40
2023-04-24T14:05:07.751Z,10.60
2023-04-24T14:07:34.896Z,10.40
2023-04-24T14:10:02.467Z,10.30
2023-04-24T14:12:29.570Z,10.20
2023-04-24T14:14:59.680Z,10.00
2023-04-24T14:17:26.799Z,9.90
2023-04-24T14:19:57.298Z,9.80
2023-04-24T14:22:24.515Z,9.70
2023-04-24T14:24:51.492Z,9.60
2023-04-24T14:27:18.566Z,9.70
2023-04-24T14:29:46.396Z,9.80
2023-04-24T14:32:16.054Z,10.20
2023-04-24T14:34:43.296Z,10.30
2023-04-24T14:37:10.553Z,10.20
2023-04-24T14:39:37.626Z,9.90
2023-04-24T14:42:04.780Z,10.00
2023-04-24T14:44:32.012Z,10.10
2023-04-24T14:46:59.967Z,10.70
2023-04-24T14:49:27.526Z,11.20
2023-04-24T14:51:54.526Z,11.40
2023-04-24T14:54:24.263Z,11.30
2023-04-24T14:56:51.930Z,11.30
2023-04-24T14:59:19.036Z,12.20
2023-04-24T15:01:46.249Z,12.60
2023-04-24T15:04:13.720Z,12.70
2023-04-24T15:06:40.937Z,12.30
2023-04-24T15:09:08.395Z,11.90
2023-04-24T15:11:35.697Z,11.40
2023-04-24T15:14:02.801Z,11.30
2023-04-24T15:16:30.031Z,11.10
2023-04-24T15:18:58.256Z,11.40
2023-04-24T15:21:25.396Z,11.90
2023-04-24T15:23:52.499Z,12.70
2023-04-24T15:26:20.225Z,13.10
2023-04-24T15:28:47.924Z,13.10
2023-04-24T15:31:15.086Z,13.10
2023-04-24T15:33:42.443Z,13.00
2023-04-24T15:36:09.641Z,12.30
2023-04-24T15:38:37.239Z,12.10
2023-04-24T15:41:04.769Z,11.90
2023-04-24T15:43:35.161Z,11.70
2023-04-24T15:46:06.013Z,11.50
2023-04-24T15:48:33.208Z,11.30
2023-04-24T15:51:00.964Z,11.10
2023-04-24T15:53:28.674Z,11.00
2023-04-24T15:55:58.173Z,10.90
2023-04-24T15:58:25.549Z,10.80
2023-04-24T16:00:54.359Z,10.80
2023-04-24T16:03:22.107Z,10.80
2023-04-24T16:05:49.324Z,10.60
2023-04-24T16:08:16.723Z,10.50
2023-04-24T16:10:44.447Z,10.40
2023-04-24T16:13:11.496Z,10.50
2023-04-24T16:15:40.248Z,10.40
2023-04-24T16:18:07.402Z,10.50
2023-04-24T16:20:34.517Z,10.50
2023-04-24T16:23:01.634Z,10.40
2023-04-24T16:25:28.853Z,10.40
2023-04-24T16:27:57.185Z,10.30
2023-04-24T16:30:24.361Z,10.20
2023-04-24T16:32:51.579Z,10.20
2023-04-24T16:35:18.730Z,10.20
2023-04-24T16:37:45.911Z,10.10
2023-04-24T16:40:13.071Z,10.00
2023-04-24T16:42:40.425Z,10.00
2023-04-24T16:45:08.308Z,10.00
2023-04-24T16:47:36.605Z,9.90
2023-04-24T16:50:05.166Z,9.90
2023-04-24T16:52:32.255Z,10.00
2023-04-24T16:54:59.472Z,10.00
2023-04-24T16:57:26.605Z,10.00
2023-04-24T16:59:53.733Z,10.00
2023-04-24T17:02:21.258Z,10.00
2023-04-24T17:04:48.330Z,10.00
2023-04-24T17:07:15.636Z,10.00
2023-04-24T17:09:42.896Z,10.00
2023-04-24T17:12:11.146Z,9.90
2023-04-24T17:14:38.125Z,9.90
2023-04-24T17:17:05.290Z,9.90
2023-04-24T17:19:32.407Z,9.80
2023-04-24T17:21:59.440Z,9.80
2023-04-24T17:24:26.489Z,9.70
2023-04-24T17:26:56.593Z,9.70
2023-04-24T17:29:28.628Z,9.70
2023-04-24T17:31:55.752Z,9.70
2023-04-24T17:34:23.061Z,9.70
2023-04-24T17:36:50.086Z,9.60
2023-04-24T17:39:17.297Z,9.60
2023-04-24T17:41:44.457Z,9.60
2023-04-24T17:44:11.507Z,9.50
2023-04-24T17:46:42.701Z,9.50
2023-04-24T17:49:09.943Z,9.40
2023-04-24T17:51:36.963Z,9.50
2023-04-24T17:54:04.075Z,9.50
2023-04-24T17:56:31.272Z,9.40
2023-04-24T17:58:58.530Z,9.40
2023-04-24T18:01:25.889Z,9.40
2023-04-24T18:03:53.057Z,9.40
2023-04-24T18:06:20.362Z,9.40
2023-04-24T18:08:47.695Z,9.40
2023-04-24T18:11:15.274Z,9.30
2023-04-24T18:13:42.694Z,9.30
2023-04-24T18:16:09.805Z,9.20
2023-04-24T18:18:36.928Z,9.20
2023-04-24T18:21:04.270Z,9.10
2023-04-24T18:23:31.679Z,9.10
2023-04-24T18:25:58.772Z,9.00
2023-04-24T18:28:25.866Z,9.00
2023-04-24T18:30:52.956Z,9.00
2023-04-24T18:33:20.107Z,8.90
2023-04-24T18:35:47.216Z,8.80
2023-04-24T18:38:14.265Z,8.80
2023-04-24T18:40:42.863Z,8.70
2023-04-24T18:43:10.287Z,8.70
2023-04-24T18:45:37.261Z,8.60
2023-04-24T18:48:04.502Z,8.60
2023-04-24T18:50:32.516Z,8.60
2023-04-24T18:52:59.826Z,8.60
2023-04-24T18:55:26.915Z,8.50
2023-04-24T18:57:54.031Z,8.40
2023-04-24T19:00:21.449Z,8.40
2023-04-24T19:02:48.687Z,8.40
2023-04-24T19:05:16.381Z,8.30
2023-04-24T19:07:43.503Z,8.30
2023-04-24T19:10:11.055Z,8.20
2023-04-24T19:12:38.395Z,8.20
2023-04-24T19:15:06.481Z,8.10
2023-04-24T19:17:33.877Z,8.10
2023-04-24T19:20:00.987Z,8.00
2023-04-24T19:22:29.192Z,7.90
2023-04-24T19:25:00.899Z,7.90
2023-04-24T19:27:27.909Z,7.80
2023-04-24T19:29:55.006Z,7.80
2023-04-24T19:32:22.081Z,7.70
2023-04-24T19:34:49.243Z,7.70
2023-04-24T19:37:16.843Z,7.70
2023-04-24T19:39:46.245Z,7.60
2023-04-24T19:42:13.338Z,7.60
2023-04-24T19:44:40.487Z,7.50
2023-04-24T19:47:07.611Z,7.50
2023-04-24T19:49:34.723Z,7.50
2023-04-24T19:52:01.744Z,7.40
2023-04-24T19:54:29.311Z,7.40
2023-04-24T19:56:57.077Z,7.40
2023-04-24T19:59:26.856Z,7.30
2023-04-24T20:01:55.272Z,7.30
2023-04-24T20:04:23.555Z,7.30
2023-04-24T20:06:50.736Z,7.30
2023-04-24T20:09:17.810Z,7.30
2023-04-24T20:11:54.566Z,7.30
2023-04-24T20:14:21.707Z,7.30
2023-04-24T20:16:49.554Z,7.30
2023-04-24T20:19:17.020Z,7.30
2023-04-24T20:21:44.301Z,7.30
2023-04-24T20:24:11.397Z,7.30
2023-04-24T20:26:38.852Z,7.30
2023-04-24T20:29:07.027Z,7.20
2023-04-24T20:31:34.110Z,7.20
2023-04-24T20:34:01.282Z,7.20
2023-04-24T20:36:28.840Z,7.20
2023-04-24T20:38:57.261Z,7.10
2023-04-24T20:41:24.968Z,7.10
2023-04-24T20:43:53.415Z,7.10
2023-04-24T20:46:20.770Z,7.10
2023-04-24T20:48:48.762Z,7.10
2023-04-24T20:51:16.021Z,7.10
2023-04-24T20:53:43.039Z,7.00
2023-04-24T20:56:11.483Z,7.00
2023-04-24T20:58:38.864Z,6.90
2023-04-24T21:01:06.379Z,6.90
2023-04-24T21:03:33.770Z,6.90
2023-04-24T21:06:01.057Z,6.80
2023-04-24T21:08:28.426Z,6.80
2023-04-24T21:10:55.541Z,6.80
2023-04-24T21:13:22.636Z,6.70
2023-04-24T21:15:49.729Z,6.70
2023-04-24T21:18:16.945Z,6.70
2023-04-24T21:20:44.027Z,6.60
2023-04-24T21:23:11.096Z,6.60
2023-04-24T21:25:38.992Z,6.60
2023-04-24T21:28:06.257Z,6.50
2023-04-24T21:30:33.363Z,6.50
2023-04-24T21:33:00.533Z,6.50
2023-04-24T21:35:27.557Z,6.50
2023-04-24T21:37:54.610Z,6.50
2023-04-24T21:40:21.695Z,6.50
2023-04-24T21:42:48.967Z,6.40
2023-04-24T21:45:16.032Z,6.40
2023-04-24T21:47:43.117Z,6.40
2023-04-24T21:50:10.924Z,6.30
2023-04-24T21:52:38.011Z,6.30
2023-04-24T21:55:05.488Z,6.30
2023-04-24T21:57:32.546Z,6.20
2023-04-24T21:59:59.937Z,6.20
2023-04-24T22:02:27.245Z,6.20
2023-04-24T22:04:56.490Z,6.20
2023-04-24T22:07:23.847Z,6.10
2023-04-24T22:09:50.849Z,6.10
2023-04-24T22:12:18.034Z,6.10
2023-04-24T22:14:45.348Z,6.00
2023-04-24T22:17:12.955Z,6.10
2023-04-24T22:19:41.921Z,6.00
2023-04-24T22:22:09.059Z,6.00
2023-04-24T22:24:36.686Z,6.00
2023-04-24T22:27:03.738Z,5.90
2023-04-24T22:29:31.194Z,5.90
2023-04-24T22:31:58.938Z,5.90
2023-04-24T22:34:26.052Z,5.90
2023-04-24T22:36:53.068Z,5.90
2023-04-24T22:39:20.092Z,5.90
2023-04-24T22:41:47.208Z,5.80
2023-04-24T22:44:14.690Z,5.80
2023-04-24T22:46:41.830Z,5.80
2023-04-24T22:49:09.163Z,5.80
2023-04-24T22:51:36.246Z,5.80
2023-04-24T22:54:06.640Z,5.70
2023-04-24T22:56:34.434Z,5.70
2023-04-24T22:59:01.613Z,5.70
2023-04-24T23:01:29.355Z,5.70
2023-04-24T23:03:56.664Z,5.70
2023-04-24T23:06:23.783Z,5.70
2023-04-24T23:08:50.958Z,5.60
2023-04-24T23:11:18.299Z,5.60
2023-04-24T23:13:45.411Z,5.60
2023-04-24T23:16:12.573Z,5.60
2023-04-24T23:18:39.579Z,5.60
2023-04-24T23:21:06.818Z,5.60
2023-04-24T23:23:34.298Z,5.50
2023-04-24T23:26:01.770Z,5.50
2023-04-24T23:28:28.800Z,5.50
2023-04-24T23:30:55.902Z,5.40
2023-04-24T23:33:23.132Z,5.40
2023-04-24T23:35:50.392Z,5.40
2023-04-24T23:38:17.541Z,5.30
2023-04-24T23:40:44.645Z,5.30
2023-04-24T23:43:12.714Z,5.20
2023-04-24T23:45:40.723Z,5.20
2023-04-24T23:48:07.844Z,5.20
2023-04-24T23:50:35.110Z,5.20
2023-04-24T23:53:02.300Z,5.20
2023-04-24T23:55:29.571Z,5.10
2023-04-24T23:57:56.644Z,5.20
